Aérodrome :
LOGIN :

S'inscrire | Disclaimer

   EN    FR    IT 

 










Légende :    VFR   VFR Marginal   IFR   IFR Intensif   IFR Très Intensif
Visi : 
Plafond : 
>= 8 km
>= 3000ft
5 à 8 km
1000 à 3000 ft
1500m à 5 km
500 à 1000 ft
800 à 1500m
200 à 500 ft
< 800m
< 200 ft
Symboles :   Orages  Brouillard  Fortes neiges  Fortes précipitations  Vent > 20 kt
SIGMETs :   Divers  Orages  Givrage  Turbulence  Onde Orograph.  Cendres Volcan.






- Altitude de l'aérodrome : 375 ft
- Code IATA : MST


EHBK - Maastricht Aachen

DERNIER METAR :
  • 301555Z AUTO 26015KT 210V320 9999 -TSRA +DZ FEW015CB OVC021 17/13 Q1012 TEMPO 20015G35KT 7000 TSRA SCT070CB

METARs EXPIRÉS :
  • 301525Z AUTO 28013KT 220V340 9999 FEW042 BKN046 20/14 Q1011 TEMPO TS SCT070CB
  • 301455Z AUTO 28009KT 230V330 9999 OVC041 23/15 Q1010 NOSIG
  • 301425Z AUTO 29005KT 220V010 9999 NSC 25/15 Q1010 NOSIG
  • 301355Z AUTO 33006KT 290V010 9999 NSC 25/16 Q1010 NOSIG
  • 301325Z AUTO 09005KT 360V130 9999 NSC 25/15 Q1010 NOSIG

TAF TAF EHBK
Valide du 30 à 12h jusqu'au 01 à 18h UTC


301119Z 3012/0118 30008KT 9999 BKN045
BECMG 3013/3016 27010KT 6000 -RADZ BKN012
PROB30
TEMPO 3014/3018 30018G28KT 3000 SHRA TSRA SCT050CB
TEMPO 3016/3022 4000 DZ BKN008
BECMG 3019/3022 24008KT 9999 NSW SCT015
PROB30
TEMPO 3022/0107 BKN010



MET'MAP, la Météo Aéronautique d'un coup d'oeil ! - Copyright ORBIFLY Décembre 2007 - Disclaimer

ORBIFLY MET'MAP TEAM :

Programmation & Développement : Alexandra Zaïnal
Sur une idée originale de : Baudouin d'Aumeries
Soutien technique & logistique : Manuel Goepfert
Assistance : Marc-Olivier Méhu




SOURCES & CREDITS :

   NOAA